sensor_id;sensor_type;location;lat;lon;timestamp;pressure;altitude;pressure_sealevel;temperature;humidity
79463;BME280;68931;47.286;18.756;2023-04-16T00:00:32;100357.06;;;5.73;92.55
79463;BME280;68931;47.286;18.756;2023-04-16T00:01:03;100352.75;;;5.72;92.68
79463;BME280;68931;47.286;18.756;2023-04-16T00:01:34;100356.16;;;5.74;92.22
79463;BME280;68931;47.286;18.756;2023-04-16T00:02:05;100351.00;;;5.73;92.00
79463;BME280;68931;47.286;18.756;2023-04-16T00:02:36;100358.75;;;5.74;92.43
79463;BME280;68931;47.286;18.756;2023-04-16T00:03:06;100378.31;;;5.84;91.99
79463;BME280;68931;47.286;18.756;2023-04-16T00:03:37;100360.47;;;5.75;92.64
79463;BME280;68931;47.286;18.756;2023-04-16T00:04:08;100355.50;;;5.69;91.92
79463;BME280;68931;47.286;18.756;2023-04-16T00:04:38;100358.91;;;5.71;92.02
79463;BME280;68931;47.286;18.756;2023-04-16T00:05:09;100356.31;;;5.71;92.72
79463;BME280;68931;47.286;18.756;2023-04-16T00:05:40;100359.66;;;5.73;92.34
79463;BME280;68931;47.286;18.756;2023-04-16T00:06:14;100368.94;;;5.80;92.16
79463;BME280;68931;47.286;18.756;2023-04-16T00:06:44;100353.00;;;5.66;92.76
79463;BME280;68931;47.286;18.756;2023-04-16T00:07:15;100351.31;;;5.65;92.38
79463;BME280;68931;47.286;18.756;2023-04-16T00:07:49;100359.06;;;5.66;92.45
79463;BME280;68931;47.286;18.756;2023-04-16T00:08:23;100355.56;;;5.67;92.94
79463;BME280;68931;47.286;18.756;2023-04-16T00:08:54;100350.41;;;5.66;93.26
79463;BME280;68931;47.286;18.756;2023-04-16T00:09:25;100370.75;;;5.78;93.35
79463;BME280;68931;47.286;18.756;2023-04-16T00:09:56;100373.31;;;5.80;92.68
79463;BME280;68931;47.286;18.756;2023-04-16T00:10:26;100355.44;;;5.71;93.30
79463;BME280;68931;47.286;18.756;2023-04-16T00:10:57;100357.19;;;5.70;93.13
79463;BME280;68931;47.286;18.756;2023-04-16T00:11:28;100348.66;;;5.66;93.34
79463;BME280;68931;47.286;18.756;2023-04-16T00:11:58;100369.84;;;5.79;93.07
79463;BME280;68931;47.286;18.756;2023-04-16T00:12:29;100340.19;;;5.61;93.30
79463;BME280;68931;47.286;18.756;2023-04-16T00:13:00;100352.75;;;5.72;92.90
79463;BME280;68931;47.286;18.756;2023-04-16T00:13:31;100353.00;;;5.66;93.17
79463;BME280;68931;47.286;18.756;2023-04-16T00:14:02;100370.03;;;5.75;92.71
79463;BME280;68931;47.286;18.756;2023-04-16T00:14:32;100348.78;;;5.63;93.08
79463;BME280;68931;47.286;18.756;2023-04-16T00:15:06;100342.97;;;5.57;93.14
79463;BME280;68931;47.286;18.756;2023-04-16T00:15:37;100340.41;;;5.55;93.27
79463;BME280;68931;47.286;18.756;2023-04-16T00:16:07;100335.31;;;5.54;92.56
79463;BME280;68931;47.286;18.756;2023-04-16T00:16:38;100372.69;;;5.73;92.52
79463;BME280;68931;47.286;18.756;2023-04-16T00:17:09;100342.13;;;5.56;93.30
79463;BME280;68931;47.286;18.756;2023-04-16T00:17:40;100359.31;;;5.60;93.33
79463;BME280;68931;47.286;18.756;2023-04-16T00:18:11;100342.25;;;5.53;92.68
79463;BME280;68931;47.286;18.756;2023-04-16T00:18:41;100352.47;;;5.58;92.60
79463;BME280;68931;47.286;18.756;2023-04-16T00:19:18;100365.13;;;5.67;93.37
79463;BME280;68931;47.286;18.756;2023-04-16T00:19:49;100358.53;;;5.58;92.76
79463;BME280;68931;47.286;18.756;2023-04-16T00:20:19;100372.75;;;5.72;93.34
79463;BME280;68931;47.286;18.756;2023-04-16T00:20:50;100364.47;;;5.62;93.20
79463;BME280;68931;47.286;18.756;2023-04-16T00:21:21;100369.47;;;5.66;93.45
79463;BME280;68931;47.286;18.756;2023-04-16T00:21:52;100373.78;;;5.67;93.09
79463;BME280;68931;47.286;18.756;2023-04-16T00:22:22;100358.63;;;5.55;93.45
79463;BME280;68931;47.286;18.756;2023-04-16T00:22:53;100364.56;;;5.59;92.86
79463;BME280;68931;47.286;18.756;2023-04-16T00:23:24;100380.72;;;5.67;92.89
79463;BME280;68931;47.286;18.756;2023-04-16T00:23:55;100347.56;;;5.50;93.37
79463;BME280;68931;47.286;18.756;2023-04-16T00:24:28;100341.63;;;5.47;93.38
79463;BME280;68931;47.286;18.756;2023-04-16T00:24:59;100339.34;;;5.39;93.01
79463;BME280;68931;47.286;18.756;2023-04-16T00:25:30;100378.50;;;5.58;92.67
79463;BME280;68931;47.286;18.756;2023-04-16T00:26:01;100353.97;;;5.42;92.57
79463;BME280;68931;47.286;18.756;2023-04-16T00:26:31;100337.69;;;5.37;92.80
79463;BME280;68931;47.286;18.756;2023-04-16T00:27:02;100343.03;;;5.34;93.36
79463;BME280;68931;47.286;18.756;2023-04-16T00:27:33;100390.66;;;5.57;92.68
79463;BME280;68931;47.286;18.756;2023-04-16T00:28:04;100388.09;;;5.56;93.40
79463;BME280;68931;47.286;18.756;2023-04-16T00:28:38;100383.94;;;5.52;93.39
79463;BME280;68931;47.286;18.756;2023-04-16T00:29:08;100379.69;;;5.49;92.75
79463;BME280;68931;47.286;18.756;2023-04-16T00:29:39;100362.75;;;5.39;92.90
79463;BME280;68931;47.286;18.756;2023-04-16T00:30:10;100378.94;;;5.46;92.90
79463;BME280;68931;47.286;18.756;2023-04-16T00:30:41;100395.25;;;5.51;93.18
79463;BME280;68931;47.286;18.756;2023-04-16T00:31:12;100379.75;;;5.48;92.79
79463;BME280;68931;47.286;18.756;2023-04-16T00:31:42;100373.94;;;5.41;92.58
79463;BME280;68931;47.286;18.756;2023-04-16T00:32:16;100357.88;;;5.30;93.26
79463;BME280;68931;47.286;18.756;2023-04-16T00:32:47;100352.69;;;5.30;93.22
79463;BME280;68931;47.286;18.756;2023-04-16T00:33:17;100371.41;;;5.40;93.37
79463;BME280;68931;47.286;18.756;2023-04-16T00:33:48;100369.84;;;5.36;93.48
79463;BME280;68931;47.286;18.756;2023-04-16T00:34:19;100351.19;;;5.24;93.61
79463;BME280;68931;47.286;18.756;2023-04-16T00:34:49;100343.44;;;5.23;92.96
79463;BME280;68931;47.286;18.756;2023-04-16T00:35:20;100350.38;;;5.22;93.14
79463;BME280;68931;47.286;18.756;2023-04-16T00:35:51;100370.59;;;5.38;93.03
79463;BME280;68931;47.286;18.756;2023-04-16T00:36:23;100381.56;;;5.46;93.09
79463;BME280;68931;47.286;18.756;2023-04-16T00:36:57;100355.44;;;5.27;93.37
79463;BME280;68931;47.286;18.756;2023-04-16T00:37:27;100380.00;;;5.42;92.92
79463;BME280;68931;47.286;18.756;2023-04-16T00:37:59;100358.88;;;5.27;92.92
79463;BME280;68931;47.286;18.756;2023-04-16T00:38:32;100354.56;;;5.26;93.33
79463;BME280;68931;47.286;18.756;2023-04-16T00:39:03;100361.34;;;5.30;93.70
79463;BME280;68931;47.286;18.756;2023-04-16T00:39:33;100378.53;;;5.35;93.29
79463;BME280;68931;47.286;18.756;2023-04-16T00:40:05;100353.09;;;5.19;93.11
79463;BME280;68931;47.286;18.756;2023-04-16T00:40:36;100362.38;;;5.26;93.26
79463;BME280;68931;47.286;18.756;2023-04-16T00:41:07;100363.13;;;5.28;93.52
79463;BME280;68931;47.286;18.756;2023-04-16T00:41:42;100377.00;;;5.29;93.77
79463;BME280;68931;47.286;18.756;2023-04-16T00:42:12;100382.75;;;5.37;93.23
79463;BME280;68931;47.286;18.756;2023-04-16T00:42:44;100386.16;;;5.39;93.25
79463;BME280;68931;47.286;18.756;2023-04-16T00:43:21;100376.09;;;5.30;93.97
79463;BME280;68931;47.286;18.756;2023-04-16T00:43:52;100381.19;;;5.33;93.67
79463;BME280;68931;47.286;18.756;2023-04-16T00:44:23;100374.28;;;5.32;93.57
79463;BME280;68931;47.286;18.756;2023-04-16T00:44:53;100362.47;;;5.23;93.86
79463;BME280;68931;47.286;18.756;2023-04-16T00:45:24;100369.28;;;5.27;94.04
79463;BME280;68931;47.286;18.756;2023-04-16T00:45:55;100359.94;;;5.22;94.38
79463;BME280;68931;47.286;18.756;2023-04-16T00:46:26;100377.75;;;5.33;93.90
79463;BME280;68931;47.286;18.756;2023-04-16T00:46:57;100379.31;;;5.37;94.01
79463;BME280;68931;47.286;18.756;2023-04-16T00:47:28;100367.50;;;5.28;94.03
79463;BME280;68931;47.286;18.756;2023-04-16T00:48:05;100382.00;;;5.35;94.11
79463;BME280;68931;47.286;18.756;2023-04-16T00:48:38;100385.31;;;5.39;94.03
79463;BME280;68931;47.286;18.756;2023-04-16T00:49:10;100368.34;;;5.28;93.66
79463;BME280;68931;47.286;18.756;2023-04-16T00:49:50;100379.69;;;5.27;93.61
79463;BME280;68931;47.286;18.756;2023-04-16T00:50:22;100386.34;;;5.35;93.62
79463;BME280;68931;47.286;18.756;2023-04-16T00:50:55;100352.44;;;5.14;94.09
79463;BME280;68931;47.286;18.756;2023-04-16T00:51:26;100387.25;;;5.34;93.28
79463;BME280;68931;47.286;18.756;2023-04-16T00:51:57;100380.41;;;5.31;93.51
79463;BME280;68931;47.286;18.756;2023-04-16T00:52:28;100377.91;;;5.28;94.23
79463;BME280;68931;47.286;18.756;2023-04-16T00:53:01;100382.28;;;5.27;94.20
79463;BME280;68931;47.286;18.756;2023-04-16T00:53:32;100382.16;;;5.30;93.81
79463;BME280;68931;47.286;18.756;2023-04-16T00:54:56;100353.31;;;5.13;93.79
79463;BME280;68931;47.286;18.756;2023-04-16T00:55:28;100381.19;;;5.33;94.00
79463;BME280;68931;47.286;18.756;2023-04-16T00:56:01;100352.47;;;5.13;94.10
79463;BME280;68931;47.286;18.756;2023-04-16T00:56:34;100358.38;;;5.18;93.99
79463;BME280;68931;47.286;18.756;2023-04-16T00:57:05;100387.25;;;5.34;94.20
79463;BME280;68931;47.286;18.756;2023-04-16T00:57:40;100394.84;;;5.38;94.08
79463;BME280;68931;47.286;18.756;2023-04-16T00:58:10;100360.78;;;5.22;93.31
79463;BME280;68931;47.286;18.756;2023-04-16T00:58:41;100392.31;;;5.37;94.31
79463;BME280;68931;47.286;18.756;2023-04-16T00:59:12;100368.69;;;5.19;94.15
79463;BME280;68931;47.286;18.756;2023-04-16T00:59:43;100381.53;;;5.24;93.61
79463;BME280;68931;47.286;18.756;2023-04-16T01:00:14;100355.97;;;5.12;93.49
79463;BME280;68931;47.286;18.756;2023-04-16T01:00:44;100378.84;;;5.27;93.74
79463;BME280;68931;47.286;18.756;2023-04-16T01:01:15;100374.59;;;5.24;93.75
79463;BME280;68931;47.286;18.756;2023-04-16T01:01:46;100376.22;;;5.27;93.97
79463;BME280;68931;47.286;18.756;2023-04-16T01:02:17;100398.31;;;5.39;94.27
79463;BME280;68931;47.286;18.756;2023-04-16T01:02:47;100377.00;;;5.29;93.47
79463;BME280;68931;47.286;18.756;2023-04-16T01:03:18;100368.47;;;5.25;93.83
79463;BME280;68931;47.286;18.756;2023-04-16T01:03:49;100400.84;;;5.40;93.84
79463;BME280;68931;47.286;18.756;2023-04-16T01:04:20;100376.84;;;5.34;93.37
79463;BME280;68931;47.286;18.756;2023-04-16T01:04:51;100367.63;;;5.25;93.91
79463;BME280;68931;47.286;18.756;2023-04-16T01:05:21;100383.59;;;5.38;93.92
79463;BME280;68931;47.286;18.756;2023-04-16T01:05:52;100388.88;;;5.36;93.98
79463;BME280;68931;47.286;18.756;2023-04-16T01:06:23;100377.75;;;5.33;93.62
79463;BME280;68931;47.286;18.756;2023-04-16T01:06:54;100387.78;;;5.42;94.00
79463;BME280;68931;47.286;18.756;2023-04-16T01:07:24;100356.53;;;5.20;93.76
79463;BME280;68931;47.286;18.756;2023-04-16T01:07:57;100373.50;;;5.30;93.46
79463;BME280;68931;47.286;18.756;2023-04-16T01:08:29;100399.00;;;5.44;93.35
79463;BME280;68931;47.286;18.756;2023-04-16T01:09:00;100391.25;;;5.42;93.26
79463;BME280;68931;47.286;18.756;2023-04-16T01:09:31;100399.94;;;5.41;93.80
79463;BME280;68931;47.286;18.756;2023-04-16T01:10:02;100382.16;;;5.30;93.83
79463;BME280;68931;47.286;18.756;2023-04-16T01:10:33;100396.59;;;5.38;93.86
79463;BME280;68931;47.286;18.756;2023-04-16T01:11:03;100395.84;;;5.36;93.88
79463;BME280;68931;47.286;18.756;2023-04-16T01:11:37;100387.53;;;5.26;93.33
79463;BME280;68931;47.286;18.756;2023-04-16T01:12:12;100383.94;;;5.28;93.80
79463;BME280;68931;47.286;18.756;2023-04-16T01:12:42;100389.03;;;5.32;93.47
79463;BME280;68931;47.286;18.756;2023-04-16T01:13:13;100367.88;;;5.19;93.42
79463;BME280;68931;47.286;18.756;2023-04-16T01:13:44;100384.75;;;5.30;93.15
79463;BME280;68931;47.286;18.756;2023-04-16T01:14:15;100383.91;;;5.30;92.79
79463;BME280;68931;47.286;18.756;2023-04-16T01:14:46;100381.44;;;5.27;92.74
79463;BME280;68931;47.286;18.756;2023-04-16T01:15:17;100391.69;;;5.30;93.35
79463;BME280;68931;47.286;18.756;2023-04-16T01:15:47;100361.94;;;5.15;93.47
79463;BME280;68931;47.286;18.756;2023-04-16T01:16:18;100397.59;;;5.35;93.65
79463;BME280;68931;47.286;18.756;2023-04-16T01:16:49;100361.03;;;5.16;93.32
79463;BME280;68931;47.286;18.756;2023-04-16T01:17:19;100396.78;;;5.33;93.04
79463;BME280;68931;47.286;18.756;2023-04-16T01:17:50;100376.34;;;5.24;93.41
79463;BME280;68931;47.286;18.756;2023-04-16T01:18:22;100394.16;;;5.35;93.40
79463;BME280;68931;47.286;18.756;2023-04-16T01:18:56;100394.25;;;5.32;93.31
79463;BME280;68931;47.286;18.756;2023-04-16T01:19:26;100390.78;;;5.31;92.35
79463;BME280;68931;47.286;18.756;2023-04-16T01:19:59;100391.59;;;5.33;92.55
79463;BME280;68931;47.286;18.756;2023-04-16T01:20:36;100389.34;;;5.24;93.38
79463;BME280;68931;47.286;18.756;2023-04-16T01:21:06;100396.84;;;5.32;92.67
79463;BME280;68931;47.286;18.756;2023-04-16T01:21:37;100383.53;;;5.17;92.55
79463;BME280;68931;47.286;18.756;2023-04-16T01:22:10;100368.03;;;5.14;93.08
79463;BME280;68931;47.286;18.756;2023-04-16T01:22:47;100369.88;;;5.11;92.67
79463;BME280;68931;47.286;18.756;2023-04-16T01:23:18;100399.63;;;5.27;92.54
79463;BME280;68931;47.286;18.756;2023-04-16T01:23:49;100370.00;;;5.08;92.85
79463;BME280;68931;47.286;18.756;2023-04-16T01:24:20;100364.91;;;5.05;92.34
79463;BME280;68931;47.286;18.756;2023-04-16T01:24:50;100400.69;;;5.21;92.86
79463;BME280;68931;47.286;18.756;2023-04-16T01:25:21;100355.59;;;4.99;92.75
79463;BME280;68931;47.286;18.756;2023-04-16T01:25:54;100395.50;;;5.21;93.56
79463;BME280;68931;47.286;18.756;2023-04-16T01:26:25;100364.88;;;5.06;93.23
79463;BME280;68931;47.286;18.756;2023-04-16T01:26:59;100403.34;;;5.20;93.82
79463;BME280;68931;47.286;18.756;2023-04-16T01:27:30;100393.13;;;5.15;93.39
79463;BME280;68931;47.286;18.756;2023-04-16T01:28:01;100398.09;;;5.21;93.69
79463;BME280;68931;47.286;18.756;2023-04-16T01:28:32;100386.19;;;5.16;93.73
79463;BME280;68931;47.286;18.756;2023-04-16T01:29:03;100398.22;;;5.18;93.15
79463;BME280;68931;47.286;18.756;2023-04-16T01:29:34;100395.44;;;5.23;93.19
79463;BME280;68931;47.286;18.756;2023-04-16T01:30:05;100388.72;;;5.17;93.72
79463;BME280;68931;47.286;18.756;2023-04-16T01:30:36;100386.13;;;5.17;93.60
79463;BME280;68931;47.286;18.756;2023-04-16T01:31:06;100381.81;;;5.16;93.22
79463;BME280;68931;47.286;18.756;2023-04-16T01:31:37;100388.78;;;5.16;92.83
79463;BME280;68931;47.286;18.756;2023-04-16T01:32:08;100387.94;;;5.15;93.11
79463;BME280;68931;47.286;18.756;2023-04-16T01:32:41;100378.47;;;5.13;92.36
79463;BME280;68931;47.286;18.756;2023-04-16T01:33:13;100377.75;;;5.09;92.50
79463;BME280;68931;47.286;18.756;2023-04-16T01:33:44;100372.78;;;5.03;93.10
79463;BME280;68931;47.286;18.756;2023-04-16T01:34:15;100382.41;;;5.01;92.94
79463;BME280;68931;47.286;18.756;2023-04-16T01:34:46;100374.47;;;5.04;92.17
79463;BME280;68931;47.286;18.756;2023-04-16T01:35:16;100372.78;;;5.03;92.50
79463;BME280;68931;47.286;18.756;2023-04-16T01:35:49;100360.91;;;4.96;92.44
79463;BME280;68931;47.286;18.756;2023-04-16T01:36:20;100391.53;;;5.11;92.89
79463;BME280;68931;47.286;18.756;2023-04-16T01:36:51;100370.31;;;5.00;92.36
79463;BME280;68931;47.286;18.756;2023-04-16T01:37:25;100377.97;;;5.03;92.61
79463;BME280;68931;47.286;18.756;2023-04-16T01:37:56;100380.50;;;5.05;92.09
79463;BME280;68931;47.286;18.756;2023-04-16T01:38:26;100350.78;;;4.88;92.68
79463;BME280;68931;47.286;18.756;2023-04-16T01:38:57;100369.75;;;4.92;93.03
79463;BME280;68931;47.286;18.756;2023-04-16T01:39:33;100356.88;;;4.87;93.19
79463;BME280;68931;47.286;18.756;2023-04-16T01:40:04;100367.81;;;4.97;93.18
79463;BME280;68931;47.286;18.756;2023-04-16T01:40:36;100388.25;;;5.06;93.40
79463;BME280;68931;47.286;18.756;2023-04-16T01:41:07;100349.94;;;4.88;92.99
79463;BME280;68931;47.286;18.756;2023-04-16T01:41:38;100395.97;;;5.09;93.53
79463;BME280;68931;47.286;18.756;2023-04-16T01:42:09;100380.75;;;4.99;93.69
79463;BME280;68931;47.286;18.756;2023-04-16T01:42:46;100400.38;;;5.07;93.39
79463;BME280;68931;47.286;18.756;2023-04-16T01:43:16;100400.38;;;5.07;93.75
79463;BME280;68931;47.286;18.756;2023-04-16T01:43:47;100390.88;;;5.06;93.98
79463;BME280;68931;47.286;18.756;2023-04-16T01:44:18;100403.00;;;5.06;93.77
79463;BME280;68931;47.286;18.756;2023-04-16T01:44:51;100395.16;;;5.07;93.65
79463;BME280;68931;47.286;18.756;2023-04-16T01:45:22;100395.25;;;5.04;93.89
79463;BME280;68931;47.286;18.756;2023-04-16T01:46:09;100403.81;;;5.08;93.27
79463;BME280;68931;47.286;18.756;2023-04-16T01:46:41;100394.31;;;5.07;93.08
79463;BME280;68931;47.286;18.756;2023-04-16T01:47:13;100396.91;;;5.07;93.77
79463;BME280;68931;47.286;18.756;2023-04-16T01:47:44;100388.38;;;5.03;93.62
79463;BME280;68931;47.286;18.756;2023-04-16T01:48:14;100380.75;;;4.99;93.23
79463;BME280;68931;47.286;18.756;2023-04-16T01:48:46;100373.94;;;4.95;93.48
79463;BME280;68931;47.286;18.756;2023-04-16T01:49:17;100387.66;;;5.00;93.00
79463;BME280;68931;47.286;18.756;2023-04-16T01:49:47;100384.91;;;5.03;93.15
79463;BME280;68931;47.286;18.756;2023-04-16T01:50:19;100372.38;;;4.90;92.97
79463;BME280;68931;47.286;18.756;2023-04-16T01:50:51;100398.72;;;5.05;93.04
79463;BME280;68931;47.286;18.756;2023-04-16T01:51:21;100368.13;;;4.88;92.71
79463;BME280;68931;47.286;18.756;2023-04-16T01:51:52;100397.16;;;5.01;92.62
79463;BME280;68931;47.286;18.756;2023-04-16T01:52:23;100393.63;;;5.02;92.80
79463;BME280;68931;47.286;18.756;2023-04-16T01:52:53;100410.88;;;5.04;92.73
79463;BME280;68931;47.286;18.756;2023-04-16T01:53:24;100405.66;;;5.04;93.52
79463;BME280;68931;47.286;18.756;2023-04-16T01:53:55;100392.16;;;4.95;92.86
79463;BME280;68931;47.286;18.756;2023-04-16T01:54:30;100414.25;;;5.06;93.64
79463;BME280;68931;47.286;18.756;2023-04-16T01:55:01;100394.66;;;4.98;93.04
79463;BME280;68931;47.286;18.756;2023-04-16T01:55:34;100410.91;;;5.03;92.94
79463;BME280;68931;47.286;18.756;2023-04-16T01:56:05;100369.41;;;4.76;93.52
79463;BME280;68931;47.286;18.756;2023-04-16T01:56:38;100402.50;;;4.96;93.60
79463;BME280;68931;47.286;18.756;2023-04-16T01:57:09;100409.44;;;4.96;93.84
79463;BME280;68931;47.286;18.756;2023-04-16T01:57:43;100406.63;;;5.02;93.68
79463;BME280;68931;47.286;18.756;2023-04-16T01:58:14;100405.09;;;4.96;94.34
79463;BME280;68931;47.286;18.756;2023-04-16T01:58:44;100394.03;;;4.91;94.15
79463;BME280;68931;47.286;18.756;2023-04-16T01:59:16;100406.69;;;5.00;94.23
79463;BME280;68931;47.286;18.756;2023-04-16T01:59:47;100403.41;;;4.95;94.17
79463;BME280;68931;47.286;18.756;2023-04-16T02:00:18;100411.81;;;5.02;94.33
79463;BME280;68931;47.286;18.756;2023-04-16T02:00:49;100392.19;;;4.93;93.63
79463;BME280;68931;47.286;18.756;2023-04-16T02:01:20;100415.13;;;5.07;94.27
79463;BME280;68931;47.286;18.756;2023-04-16T02:01:51;100388.75;;;4.92;93.49
79463;BME280;68931;47.286;18.756;2023-04-16T02:02:21;100413.22;;;5.10;93.45
79463;BME280;68931;47.286;18.756;2023-04-16T02:02:57;100390.56;;;4.90;94.21
79463;BME280;68931;47.286;18.756;2023-04-16T02:03:27;100399.78;;;4.99;94.08
79463;BME280;68931;47.286;18.756;2023-04-16T02:03:58;100414.16;;;5.09;93.93
79463;BME280;68931;47.286;18.756;2023-04-16T02:04:29;100409.88;;;5.08;93.79
79463;BME280;68931;47.286;18.756;2023-04-16T02:05:00;100398.75;;;5.03;93.93
79463;BME280;68931;47.286;18.756;2023-04-16T02:05:31;100405.66;;;5.04;93.90
79463;BME280;68931;47.286;18.756;2023-04-16T02:06:02;100404.72;;;5.07;93.27
79463;BME280;68931;47.286;18.756;2023-04-16T02:06:32;100419.97;;;5.16;93.25
79463;BME280;68931;47.286;18.756;2023-04-16T02:07:04;100408.97;;;5.09;93.18
79463;BME280;68931;47.286;18.756;2023-04-16T02:07:35;100386.84;;;4.98;93.88
79463;BME280;68931;47.286;18.756;2023-04-16T02:08:05;100409.72;;;5.11;93.63
79463;BME280;68931;47.286;18.756;2023-04-16T02:08:36;100419.97;;;5.16;93.57
79463;BME280;68931;47.286;18.756;2023-04-16T02:09:07;100399.50;;;5.07;93.67
79463;BME280;68931;47.286;18.756;2023-04-16T02:09:39;100419.13;;;5.15;92.98
79463;BME280;68931;47.286;18.756;2023-04-16T02:10:10;100415.72;;;5.13;94.07
79463;BME280;68931;47.286;18.756;2023-04-16T02:10:41;100394.66;;;4.98;93.14
79463;BME280;68931;47.286;18.756;2023-04-16T02:11:11;100404.81;;;5.04;93.52
79463;BME280;68931;47.286;18.756;2023-04-16T02:11:42;100414.25;;;5.06;93.27
79463;BME280;68931;47.286;18.756;2023-04-16T02:12:13;100400.66;;;5.00;93.25
79463;BME280;68931;47.286;18.756;2023-04-16T02:12:44;100408.25;;;5.04;92.81
79463;BME280;68931;47.286;18.756;2023-04-16T02:13:15;100395.72;;;4.92;93.13
79463;BME280;68931;47.286;18.756;2023-04-16T02:13:46;100399.00;;;4.97;93.15
79463;BME280;68931;47.286;18.756;2023-04-16T02:14:17;100399.91;;;4.96;92.66
79463;BME280;68931;47.286;18.756;2023-04-16T02:14:47;100412.66;;;5.02;93.22
79463;BME280;68931;47.286;18.756;2023-04-16T02:15:21;100415.25;;;5.02;92.97
79463;BME280;68931;47.286;18.756;2023-04-16T02:15:53;100415.22;;;5.04;92.89
79463;BME280;68931;47.286;18.756;2023-04-16T02:16:23;100414.50;;;5.00;93.23
79463;BME280;68931;47.286;18.756;2023-04-16T02:16:55;100401.88;;;4.89;92.86
79463;BME280;68931;47.286;18.756;2023-04-16T02:17:26;100424.00;;;5.01;93.44
79463;BME280;68931;47.286;18.756;2023-04-16T02:18:00;100393.38;;;4.84;93.25
79463;BME280;68931;47.286;18.756;2023-04-16T02:18:30;100408.59;;;4.95;93.37
79463;BME280;68931;47.286;18.756;2023-04-16T02:19:01;100410.38;;;4.93;92.74
79463;BME280;68931;47.286;18.756;2023-04-16T02:19:33;100404.53;;;4.88;92.70
79463;BME280;68931;47.286;18.756;2023-04-16T02:20:04;100421.53;;;4.97;92.96
79463;BME280;68931;47.286;18.756;2023-04-16T02:20:41;100413.75;;;4.97;92.97
79463;BME280;68931;47.286;18.756;2023-04-16T02:21:12;100421.59;;;4.95;92.57
79463;BME280;68931;47.286;18.756;2023-04-16T02:21:43;100401.03;;;4.89;93.36
79463;BME280;68931;47.286;18.756;2023-04-16T02:22:19;100396.19;;;4.78;92.92
79463;BME280;68931;47.286;18.756;2023-04-16T02:22:49;100428.38;;;4.99;93.69
79463;BME280;68931;47.286;18.756;2023-04-16T02:23:20;100424.94;;;4.99;93.33
79463;BME280;68931;47.286;18.756;2023-04-16T02:23:51;100425.84;;;4.98;92.59
79463;BME280;68931;47.286;18.756;2023-04-16T02:24:24;100430.09;;;5.00;93.28
79463;BME280;68931;47.286;18.756;2023-04-16T02:24:55;100417.28;;;4.94;93.13
79463;BME280;68931;47.286;18.756;2023-04-16T02:25:26;100417.28;;;4.94;93.35
79463;BME280;68931;47.286;18.756;2023-04-16T02:25:56;100381.72;;;4.71;93.69
79463;BME280;68931;47.286;18.756;2023-04-16T02:26:27;100431.09;;;4.96;93.64
79463;BME280;68931;47.286;18.756;2023-04-16T02:26:59;100422.53;;;4.92;93.95
79463;BME280;68931;47.286;18.756;2023-04-16T02:27:30;100433.69;;;4.96;93.27
79463;BME280;68931;47.286;18.756;2023-04-16T02:28:01;100427.63;;;4.96;93.03
79463;BME280;68931;47.286;18.756;2023-04-16T02:28:31;100413.22;;;4.87;93.20
79463;BME280;68931;47.286;18.756;2023-04-16T02:29:02;100398.75;;;4.80;93.06
79463;BME280;68931;47.286;18.756;2023-04-16T02:29:33;100407.91;;;4.90;93.15
79463;BME280;68931;47.286;18.756;2023-04-16T02:30:04;100414.50;;;5.00;93.78
79463;BME280;68931;47.286;18.756;2023-04-16T02:30:36;100396.25;;;4.77;92.97
79463;BME280;68931;47.286;18.756;2023-04-16T02:31:07;100410.66;;;4.85;92.68
79463;BME280;68931;47.286;18.756;2023-04-16T02:31:38;100388.72;;;4.69;93.39
79463;BME280;68931;47.286;18.756;2023-04-16T02:32:08;100419.28;;;4.87;93.57
79463;BME280;68931;47.286;18.756;2023-04-16T02:32:43;100401.56;;;4.74;92.65
79463;BME280;68931;47.286;18.756;2023-04-16T02:33:13;100407.63;;;4.74;92.63
79463;BME280;68931;47.286;18.756;2023-04-16T02:33:44;100410.78;;;4.82;92.71
79463;BME280;68931;47.286;18.756;2023-04-16T02:34:15;100385.41;;;4.66;92.64
79463;BME280;68931;47.286;18.756;2023-04-16T02:34:51;100405.78;;;4.76;92.96
79463;BME280;68931;47.286;18.756;2023-04-16T02:35:25;100413.22;;;4.87;92.60
79463;BME280;68931;47.286;18.756;2023-04-16T02:35:56;100415.88;;;4.85;92.91
79463;BME280;68931;47.286;18.756;2023-04-16T02:36:26;100422.75;;;4.86;92.75
79463;BME280;68931;47.286;18.756;2023-04-16T02:36:57;100398.97;;;4.74;93.16
79463;BME280;68931;47.286;18.756;2023-04-16T02:37:28;100399.66;;;4.79;92.81
79463;BME280;68931;47.286;18.756;2023-04-16T02:38:02;100422.72;;;4.88;92.71
79463;BME280;68931;47.286;18.756;2023-04-16T02:38:33;100404.19;;;4.74;92.88
79463;BME280;68931;47.286;18.756;2023-04-16T02:39:09;100423.63;;;4.87;93.35
79463;BME280;68931;47.286;18.756;2023-04-16T02:39:40;100396.56;;;4.68;93.17
79463;BME280;68931;47.286;18.756;2023-04-16T02:40:12;100415.25;;;4.79;93.25
79463;BME280;68931;47.286;18.756;2023-04-16T02:40:43;100413.66;;;4.75;93.15
79463;BME280;68931;47.286;18.756;2023-04-16T02:41:16;100399.13;;;4.69;92.94
79463;BME280;68931;47.286;18.756;2023-04-16T02:41:47;100393.19;;;4.66;93.38
79463;BME280;68931;47.286;18.756;2023-04-16T02:42:17;100415.47;;;4.73;93.51
79463;BME280;68931;47.286;18.756;2023-04-16T02:42:48;100407.81;;;4.68;92.95
79463;BME280;68931;47.286;18.756;2023-04-16T02:43:19;100423.94;;;4.78;93.28
79463;BME280;68931;47.286;18.756;2023-04-16T02:43:52;100414.88;;;4.65;93.13
79463;BME280;68931;47.286;18.756;2023-04-16T02:44:23;100406.13;;;4.67;92.59
79463;BME280;68931;47.286;18.756;2023-04-16T02:44:54;100421.59;;;4.70;93.08
79463;BME280;68931;47.286;18.756;2023-04-16T02:45:24;100431.00;;;4.74;93.47
79463;BME280;68931;47.286;18.756;2023-04-16T02:45:55;100413.28;;;4.61;93.04